sensor_id;sensor_type;location;lat;lon;timestamp;pressure;altitude;pressure_sealevel;temperature;humidity
4085;BME280;2057;50.858;6.572;2024-01-06T00:00:27;99056.44;;;5.52;100.00
4085;BME280;2057;50.858;6.572;2024-01-06T00:02:53;99043.75;;;5.49;100.00
4085;BME280;2057;50.858;6.572;2024-01-06T00:05:18;99056.22;;;5.47;100.00
4085;BME280;2057;50.858;6.572;2024-01-06T00:07:44;99055.31;;;5.45;100.00
4085;BME280;2057;50.858;6.572;2024-01-06T00:10:09;99056.16;;;5.46;100.00
4085;BME280;2057;50.858;6.572;2024-01-06T00:12:37;99058.69;;;5.46;100.00
4085;BME280;2057;50.858;6.572;2024-01-06T00:15:03;99059.97;;;5.56;100.00
4085;BME280;2057;50.858;6.572;2024-01-06T00:17:31;99056.59;;;5.55;100.00
4085;BME280;2057;50.858;6.572;2024-01-06T00:20:00;99055.38;;;5.47;100.00
4085;BME280;2057;50.858;6.572;2024-01-06T00:22:27;99065.44;;;5.47;100.00
4085;BME280;2057;50.858;6.572;2024-01-06T00:24:53;99062.41;;;5.54;100.00
4085;BME280;2057;50.858;6.572;2024-01-06T00:27:18;99071.53;;;5.52;100.00
4085;BME280;2057;50.858;6.572;2024-01-06T00:29:43;99074.06;;;5.52;100.00
4085;BME280;2057;50.858;6.572;2024-01-06T00:32:11;99082.56;;;5.54;100.00
4085;BME280;2057;50.858;6.572;2024-01-06T00:34:39;99079.97;;;5.53;100.00
4085;BME280;2057;50.858;6.572;2024-01-06T00:37:06;99086.13;;;5.59;100.00
4085;BME280;2057;50.858;6.572;2024-01-06T00:39:32;99079.88;;;5.51;100.00
4085;BME280;2057;50.858;6.572;2024-01-06T00:41:57;99085.13;;;5.56;100.00
4085;BME280;2057;50.858;6.572;2024-01-06T00:57:18;99093.19;;;5.48;100.00
4085;BME280;2057;50.858;6.572;2024-01-06T00:59:49;99093.91;;;5.46;100.00
4085;BME280;2057;50.858;6.572;2024-01-06T01:04:49;99093.66;;;5.40;100.00
4085;BME280;2057;50.858;6.572;2024-01-06T01:09:50;99088.19;;;5.30;100.00
4085;BME280;2057;50.858;6.572;2024-01-06T01:14:53;99085.94;;;5.37;100.00
4085;BME280;2057;50.858;6.572;2024-01-06T01:17:19;99094.19;;;5.52;100.00
4085;BME280;2057;50.858;6.572;2024-01-06T01:19:45;99087.09;;;5.43;100.00
4085;BME280;2057;50.858;6.572;2024-01-06T01:22:13;99090.63;;;5.47;100.00
4085;BME280;2057;50.858;6.572;2024-01-06T01:24:39;99094.28;;;5.54;100.00
4085;BME280;2057;50.858;6.572;2024-01-06T01:27:04;99098.09;;;5.63;100.00
4085;BME280;2057;50.858;6.572;2024-01-06T01:29:30;99099.66;;;5.61;100.00
4085;BME280;2057;50.858;6.572;2024-01-06T01:31:55;99112.25;;;5.61;100.00
4085;BME280;2057;50.858;6.572;2024-01-06T01:34:21;99099.53;;;5.58;100.00
4085;BME280;2057;50.858;6.572;2024-01-06T01:36:46;99110.66;;;5.63;100.00
4085;BME280;2057;50.858;6.572;2024-01-06T01:39:11;99114.91;;;5.64;100.00
4085;BME280;2057;50.858;6.572;2024-01-06T01:41:40;99114.19;;;5.67;100.00
4085;BME280;2057;50.858;6.572;2024-01-06T01:44:06;99119.00;;;5.62;100.00
4085;BME280;2057;50.858;6.572;2024-01-06T01:46:31;99123.53;;;5.70;100.00
4085;BME280;2057;50.858;6.572;2024-01-06T01:48:59;99121.69;;;5.65;100.00
4085;BME280;2057;50.858;6.572;2024-01-06T01:51:29;99120.22;;;5.71;100.00
4085;BME280;2057;50.858;6.572;2024-01-06T01:54:03;99128.44;;;5.67;100.00
4085;BME280;2057;50.858;6.572;2024-01-06T01:56:31;99126.84;;;5.69;100.00
4085;BME280;2057;50.858;6.572;2024-01-06T01:59:01;99126.63;;;5.64;100.00
4085;BME280;2057;50.858;6.572;2024-01-06T02:01:29;99129.03;;;5.61;100.00
4085;BME280;2057;50.858;6.572;2024-01-06T02:03:55;99139.44;;;5.69;100.00
4085;BME280;2057;50.858;6.572;2024-01-06T02:06:20;99136.78;;;5.65;100.00
4085;BME280;2057;50.858;6.572;2024-01-06T02:08:45;99138.94;;;5.76;100.00
4085;BME280;2057;50.858;6.572;2024-01-06T02:11:11;99143.88;;;5.74;100.00
4085;BME280;2057;50.858;6.572;2024-01-06T02:13:37;99144.75;;;5.75;100.00
4085;BME280;2057;50.858;6.572;2024-01-06T02:16:04;99142.88;;;5.71;100.00
4085;BME280;2057;50.858;6.572;2024-01-06T02:18:30;99143.81;;;5.73;100.00
4085;BME280;2057;50.858;6.572;2024-01-06T02:20:59;99145.41;;;5.71;100.00
4085;BME280;2057;50.858;6.572;2024-01-06T02:23:26;99141.53;;;5.77;100.00
4085;BME280;2057;50.858;6.572;2024-01-06T02:25:52;99157.19;;;5.72;100.00
4085;BME280;2057;50.858;6.572;2024-01-06T02:28:17;99157.19;;;5.72;100.00
4085;BME280;2057;50.858;6.572;2024-01-06T02:30:43;99153.38;;;5.80;100.00
4085;BME280;2057;50.858;6.572;2024-01-06T02:33:08;99165.13;;;5.79;100.00
4085;BME280;2057;50.858;6.572;2024-01-06T02:35:33;99161.72;;;5.79;100.00
4085;BME280;2057;50.858;6.572;2024-01-06T02:37:59;99154.47;;;5.85;100.00
4085;BME280;2057;50.858;6.572;2024-01-06T02:40:27;99172.00;;;5.84;100.00
4085;BME280;2057;50.858;6.572;2024-01-06T02:42:55;99170.50;;;5.87;100.00
4085;BME280;2057;50.858;6.572;2024-01-06T02:45:20;99161.31;;;5.88;100.00
4085;BME280;2057;50.858;6.572;2024-01-06T02:47:45;99167.97;;;5.87;100.00
4085;BME280;2057;50.858;6.572;2024-01-06T02:50:11;99175.34;;;6.01;100.00
4085;BME280;2057;50.858;6.572;2024-01-06T02:52:36;99176.69;;;5.94;100.00
4085;BME280;2057;50.858;6.572;2024-01-06T02:55:01;99181.66;;;5.92;100.00
4085;BME280;2057;50.858;6.572;2024-01-06T02:57:29;99184.97;;;5.91;100.00
4085;BME280;2057;50.858;6.572;2024-01-06T02:59:54;99183.47;;;5.95;100.00
4085;BME280;2057;50.858;6.572;2024-01-06T03:02:20;99185.09;;;5.94;100.00
4085;BME280;2057;50.858;6.572;2024-01-06T03:04:45;99189.44;;;5.97;100.00
4085;BME280;2057;50.858;6.572;2024-01-06T03:07:10;99191.88;;;5.95;100.00
4085;BME280;2057;50.858;6.572;2024-01-06T03:12:13;99201.16;;;5.96;100.00
4085;BME280;2057;50.858;6.572;2024-01-06T03:14:39;99206.28;;;5.98;100.00
4085;BME280;2057;50.858;6.572;2024-01-06T03:17:07;99202.88;;;5.97;100.00
4085;BME280;2057;50.858;6.572;2024-01-06T03:19:36;99204.47;;;5.95;100.00
4085;BME280;2057;50.858;6.572;2024-01-06T03:22:04;99210.25;;;6.11;100.00
4085;BME280;2057;50.858;6.572;2024-01-06T03:24:30;99209.75;;;6.00;100.00
4085;BME280;2057;50.858;6.572;2024-01-06T03:26:56;99209.50;;;5.95;100.00
4085;BME280;2057;50.858;6.572;2024-01-06T03:29:21;99206.84;;;5.92;100.00
4085;BME280;2057;50.858;6.572;2024-01-06T03:31:47;99199.50;;;5.97;100.00
4085;BME280;2057;50.858;6.572;2024-01-06T03:34:13;99216.19;;;5.95;100.00
4085;BME280;2057;50.858;6.572;2024-01-06T03:36:39;99222.09;;;5.95;100.00
4085;BME280;2057;50.858;6.572;2024-01-06T03:39:05;99217.72;;;5.91;100.00
4085;BME280;2057;50.858;6.572;2024-01-06T03:41:31;99219.50;;;5.94;100.00
4085;BME280;2057;50.858;6.572;2024-01-06T03:44:01;99220.34;;;5.94;100.00
4085;BME280;2057;50.858;6.572;2024-01-06T03:46:27;99221.69;;;6.04;100.00
4085;BME280;2057;50.858;6.572;2024-01-06T03:48:52;99218.00;;;5.97;100.00
4085;BME280;2057;50.858;6.572;2024-01-06T03:51:17;99218.50;;;6.08;100.00
4085;BME280;2057;50.858;6.572;2024-01-06T03:53:43;99220.03;;;6.05;100.00
4085;BME280;2057;50.858;6.572;2024-01-06T03:56:09;99223.13;;;5.99;100.00
4085;BME280;2057;50.858;6.572;2024-01-06T03:58:34;99229.03;;;6.00;100.00
4085;BME280;2057;50.858;6.572;2024-01-06T04:01:02;99231.47;;;5.98;100.00
4085;BME280;2057;50.858;6.572;2024-01-06T04:03:28;99231.47;;;5.98;100.00
4085;BME280;2057;50.858;6.572;2024-01-06T04:06:03;99232.81;;;5.91;100.00
4085;BME280;2057;50.858;6.572;2024-01-06T04:08:30;99232.09;;;5.94;100.00
4085;BME280;2057;50.858;6.572;2024-01-06T04:10:59;99236.50;;;5.98;100.00
4085;BME280;2057;50.858;6.572;2024-01-06T04:13:24;99228.84;;;5.96;100.00
4085;BME280;2057;50.858;6.572;2024-01-06T04:15:50;99238.09;;;5.96;100.00
4085;BME280;2057;50.858;6.572;2024-01-06T04:18:16;99240.44;;;5.93;100.00
4085;BME280;2057;50.858;6.572;2024-01-06T04:23:16;99238.66;;;5.90;100.00
4085;BME280;2057;50.858;6.572;2024-01-06T04:25:42;99241.53;;;5.80;100.00
4085;BME280;2057;50.858;6.572;2024-01-06T04:28:07;99250.03;;;5.82;100.00
4085;BME280;2057;50.858;6.572;2024-01-06T04:30:35;99247.84;;;5.72;100.00
4085;BME280;2057;50.858;6.572;2024-01-06T04:33:00;99248.28;;;5.81;100.00
4085;BME280;2057;50.858;6.572;2024-01-06T04:35:25;99251.44;;;5.77;100.00
4085;BME280;2057;50.858;6.572;2024-01-06T04:37:51;99254.31;;;5.67;100.00
4085;BME280;2057;50.858;6.572;2024-01-06T04:40:21;99259.50;;;5.70;100.00
4085;BME280;2057;50.858;6.572;2024-01-06T04:42:46;99261.94;;;5.68;100.00
4085;BME280;2057;50.858;6.572;2024-01-06T04:45:14;99265.81;;;5.61;100.00
4085;BME280;2057;50.858;6.572;2024-01-06T04:47:40;99258.41;;;5.64;100.00
4085;BME280;2057;50.858;6.572;2024-01-06T04:50:05;99262.34;;;5.59;100.00
4085;BME280;2057;50.858;6.572;2024-01-06T04:52:31;99267.47;;;5.61;100.00
4085;BME280;2057;50.858;6.572;2024-01-06T04:54:56;99265.97;;;5.64;100.00
4085;BME280;2057;50.858;6.572;2024-01-06T04:57:21;99270.56;;;5.55;100.00
4085;BME280;2057;50.858;6.572;2024-01-06T04:59:47;99274.00;;;5.57;100.00
4085;BME280;2057;50.858;6.572;2024-01-06T08:19:48;99567.56;;;3.64;100.00
4085;BME280;2057;50.858;6.572;2024-01-06T08:22:14;99579.03;;;3.60;100.00
4085;BME280;2057;50.858;6.572;2024-01-06T08:24:42;99584.16;;;3.61;100.00
4085;BME280;2057;50.858;6.572;2024-01-06T08:27:07;99586.75;;;3.63;100.00
4085;BME280;2057;50.858;6.572;2024-01-06T08:29:33;99595.16;;;3.50;100.00
4085;BME280;2057;50.858;6.572;2024-01-06T08:31:59;99592.75;;;3.52;100.00
4085;BME280;2057;50.858;6.572;2024-01-06T08:34:25;99592.66;;;3.50;100.00
4085;BME280;2057;50.858;6.572;2024-01-06T08:36:53;99606.25;;;3.54;100.00
4085;BME280;2057;50.858;6.572;2024-01-06T11:01:32;99737.16;;;3.73;100.00
4085;BME280;2057;50.858;6.572;2024-01-06T11:03:59;99737.53;;;3.66;100.00
4085;BME280;2057;50.858;6.572;2024-01-06T11:06:25;99734.34;;;3.69;100.00
4085;BME280;2057;50.858;6.572;2024-01-06T11:09:18;99738.78;;;3.73;100.00
4085;BME280;2057;50.858;6.572;2024-01-06T11:11:45;99738.59;;;3.70;100.00
4085;BME280;2057;50.858;6.572;2024-01-06T11:14:24;99734.84;;;3.76;100.00
4085;BME280;2057;50.858;6.572;2024-01-06T11:16:51;99744.31;;;3.67;100.00
4085;BME280;2057;50.858;6.572;2024-01-06T11:22:31;99745.25;;;3.69;100.00
4085;BME280;2057;50.858;6.572;2024-01-06T11:25:07;99736.00;;;3.68;100.00
4085;BME280;2057;50.858;6.572;2024-01-06T11:27:33;99738.13;;;3.75;100.00
4085;BME280;2057;50.858;6.572;2024-01-06T11:30:02;99727.03;;;3.72;100.00
4085;BME280;2057;50.858;6.572;2024-01-06T11:32:39;99732.91;;;3.72;100.00
4085;BME280;2057;50.858;6.572;2024-01-06T11:35:13;99734.47;;;3.84;100.00
4085;BME280;2057;50.858;6.572;2024-01-06T11:40:31;99735.63;;;3.89;100.00
4085;BME280;2057;50.858;6.572;2024-01-06T11:43:00;99737.84;;;3.98;100.00
4085;BME280;2057;50.858;6.572;2024-01-06T11:55:48;99745.25;;;3.69;100.00
4085;BME280;2057;50.858;6.572;2024-01-06T11:58:16;99743.88;;;3.61;100.00
4085;BME280;2057;50.858;6.572;2024-01-06T12:19:03;99751.78;;;3.54;100.00
4085;BME280;2057;50.858;6.572;2024-01-06T12:42:11;99754.47;;;3.43;100.00
4085;BME280;2057;50.858;6.572;2024-01-06T12:44:36;99751.25;;;3.33;100.00
4085;BME280;2057;50.858;6.572;2024-01-06T12:47:06;99751.84;;;3.28;100.00
4085;BME280;2057;50.858;6.572;2024-01-06T12:49:35;99753.47;;;3.28;100.00
4085;BME280;2057;50.858;6.572;2024-01-06T12:52:00;99761.75;;;3.27;100.00
4085;BME280;2057;50.858;6.572;2024-01-06T12:54:26;99766.59;;;3.24;100.00
4085;BME280;2057;50.858;6.572;2024-01-06T12:56:53;99763.50;;;3.28;100.00
4085;BME280;2057;50.858;6.572;2024-01-06T12:59:19;99766.28;;;3.19;100.00
4085;BME280;2057;50.858;6.572;2024-01-06T13:01:44;99773.91;;;3.21;100.00
4085;BME280;2057;50.858;6.572;2024-01-06T13:04:12;99771.00;;;3.14;100.00
4085;BME280;2057;50.858;6.572;2024-01-06T13:06:37;99777.31;;;3.09;100.00
4085;BME280;2057;50.858;6.572;2024-01-06T13:09:05;99779.13;;;2.98;100.00
4085;BME280;2057;50.858;6.572;2024-01-06T13:11:33;99783.69;;;3.04;100.00
4085;BME280;2057;50.858;6.572;2024-01-06T13:14:03;99784.13;;;2.98;100.00
4085;BME280;2057;50.858;6.572;2024-01-06T13:16:29;99786.31;;;2.94;100.00
4085;BME280;2057;50.858;6.572;2024-01-06T13:18:54;99781.72;;;3.00;100.00
4085;BME280;2057;50.858;6.572;2024-01-06T13:21:19;99787.25;;;3.08;100.00
4085;BME280;2057;50.858;6.572;2024-01-06T13:23:48;99786.53;;;2.97;100.00
4085;BME280;2057;50.858;6.572;2024-01-06T13:26:13;99784.22;;;3.00;100.00
4085;BME280;2057;50.858;6.572;2024-01-06T13:28:38;99784.66;;;3.06;100.00
4085;BME280;2057;50.858;6.572;2024-01-06T13:33:39;99781.38;;;3.07;100.00
4085;BME280;2057;50.858;6.572;2024-01-06T13:36:04;99788.78;;;3.06;100.00
4085;BME280;2057;50.858;6.572;2024-01-06T13:38:30;99792.88;;;2.92;100.00
4085;BME280;2057;50.858;6.572;2024-01-06T13:40:55;99799.63;;;2.93;100.00
4085;BME280;2057;50.858;6.572;2024-01-06T13:43:21;99795.41;;;2.80;100.00
4085;BME280;2057;50.858;6.572;2024-01-06T13:45:46;99798.13;;;2.83;100.00
4085;BME280;2057;50.858;6.572;2024-01-06T13:48:12;99805.44;;;2.80;100.00
4085;BME280;2057;50.858;6.572;2024-01-06T13:50:38;99809.63;;;2.67;100.00
4085;BME280;2057;50.858;6.572;2024-01-06T13:53:04;99821.44;;;2.82;100.00
4085;BME280;2057;50.858;6.572;2024-01-06T13:55:29;99828.97;;;2.82;100.00
4085;BME280;2057;50.858;6.572;2024-01-06T13:57:55;99827.25;;;2.69;100.00
4085;BME280;2057;50.858;6.572;2024-01-06T14:00:20;99831.50;;;2.70;100.00
4085;BME280;2057;50.858;6.572;2024-01-06T14:05:21;99833.69;;;2.65;100.00
4085;BME280;2057;50.858;6.572;2024-01-06T14:07:46;99833.69;;;2.65;100.00
4085;BME280;2057;50.858;6.572;2024-01-06T14:10:16;99834.78;;;2.69;100.00
4085;BME280;2057;50.858;6.572;2024-01-06T14:12:42;99845.97;;;2.74;100.00
4085;BME280;2057;50.858;6.572;2024-01-06T14:15:08;99844.69;;;2.79;100.00
4085;BME280;2057;50.858;6.572;2024-01-06T14:17:34;99846.13;;;2.64;100.00
4085;BME280;2057;50.858;6.572;2024-01-06T14:19:59;99850.56;;;2.68;100.00
4085;BME280;2057;50.858;6.572;2024-01-06T14:25:02;99855.16;;;2.74;100.00
4085;BME280;2057;50.858;6.572;2024-01-06T14:27:27;99857.00;;;2.64;100.00
4085;BME280;2057;50.858;6.572;2024-01-06T14:35:06;99865.69;;;2.70;100.00
4085;BME280;2057;50.858;6.572;2024-01-06T14:58:13;99909.06;;;2.57;100.00
4085;BME280;2057;50.858;6.572;2024-01-06T15:13:35;99924.59;;;2.17;100.00
4085;BME280;2057;50.858;6.572;2024-01-06T15:34:09;99954.31;;;2.70;100.00
4085;BME280;2057;50.858;6.572;2024-01-06T15:36:35;99958.97;;;2.54;100.00
4085;BME280;2057;50.858;6.572;2024-01-06T15:39:01;99958.56;;;2.59;100.00
4085;BME280;2057;50.858;6.572;2024-01-06T15:41:26;99964.00;;;2.54;100.00
4085;BME280;2057;50.858;6.572;2024-01-06T15:43:52;99963.28;;;2.21;100.00
4085;BME280;2057;50.858;6.572;2024-01-06T15:46:17;99964.81;;;2.30;100.00
4085;BME280;2057;50.858;6.572;2024-01-06T15:48:45;99977.16;;;2.17;100.00
4085;BME280;2057;50.858;6.572;2024-01-06T15:51:10;99971.75;;;2.23;100.00
4085;BME280;2057;50.858;6.572;2024-01-06T15:53:38;99978.94;;;2.30;100.00
4085;BME280;2057;50.858;6.572;2024-01-06T15:56:04;99978.78;;;2.39;100.00
4085;BME280;2057;50.858;6.572;2024-01-06T15:58:32;99980.09;;;2.45;100.00
4085;BME280;2057;50.858;6.572;2024-01-06T16:00:58;99986.22;;;2.61;100.00
4085;BME280;2057;50.858;6.572;2024-01-06T16:03:23;99977.69;;;2.47;100.00
4085;BME280;2057;50.858;6.572;2024-01-06T16:05:48;99982.47;;;2.44;100.00
4085;BME280;2057;50.858;6.572;2024-01-06T16:08:16;99981.16;;;2.37;100.00
4085;BME280;2057;50.858;6.572;2024-01-06T16:10:41;99986.69;;;2.33;100.00
4085;BME280;2057;50.858;6.572;2024-01-06T16:13:09;99988.53;;;2.24;100.00
4085;BME280;2057;50.858;6.572;2024-01-06T16:15:37;99984.94;;;2.32;100.00
4085;BME280;2057;50.858;6.572;2024-01-06T16:18:05;99996.63;;;2.31;100.00
4085;BME280;2057;50.858;6.572;2024-01-06T16:20:31;99995.63;;;2.29;100.00
4085;BME280;2057;50.858;6.572;2024-01-06T16:22:57;99998.34;;;2.21;100.00
4085;BME280;2057;50.858;6.572;2024-01-06T16:25:22;100002.22;;;2.17;100.00
4085;BME280;2057;50.858;6.572;2024-01-06T16:27:50;100004.09;;;2.19;100.00
4085;BME280;2057;50.858;6.572;2024-01-06T16:30:15;100015.28;;;2.13;100.00
4085;BME280;2057;50.858;6.572;2024-01-06T16:32:41;100017.09;;;2.03;100.00
4085;BME280;2057;50.858;6.572;2024-01-06T16:35:08;100024.66;;;2.15;100.00
4085;BME280;2057;50.858;6.572;2024-01-06T16:37:36;100021.63;;;2.19;100.00
4085;BME280;2057;50.858;6.572;2024-01-06T16:40:05;100012.13;;;2.15;100.00
4085;BME280;2057;50.858;6.572;2024-01-06T16:42:31;100013.16;;;2.29;100.00
4085;BME280;2057;50.858;6.572;2024-01-06T16:44:57;100015.91;;;2.32;100.00
4085;BME280;2057;50.858;6.572;2024-01-06T16:47:22;100016.81;;;2.23;100.00
4085;BME280;2057;50.858;6.572;2024-01-06T16:49:47;100017.81;;;2.25;100.00
4085;BME280;2057;50.858;6.572;2024-01-06T16:52:13;100026.84;;;2.23;100.00
4085;BME280;2057;50.858;6.572;2024-01-06T16:54:38;100031.25;;;2.03;100.00
4085;BME280;2057;50.858;6.572;2024-01-06T16:57:04;100029.50;;;1.80;100.00
4085;BME280;2057;50.858;6.572;2024-01-06T16:59:31;100028.31;;;1.86;100.00
4085;BME280;2057;50.858;6.572;2024-01-06T17:02:00;100025.31;;;1.91;100.00
4085;BME280;2057;50.858;6.572;2024-01-06T17:04:27;100037.34;;;1.84;100.00
4085;BME280;2057;50.858;6.572;2024-01-06T17:06:53;100037.41;;;1.96;100.00
4085;BME280;2057;50.858;6.572;2024-01-06T17:09:19;100035.63;;;1.83;100.00
4085;BME280;2057;50.858;6.572;2024-01-06T17:11:44;100036.47;;;2.06;100.00
4085;BME280;2057;50.858;6.572;2024-01-06T17:14:10;100035.41;;;2.14;100.00
4085;BME280;2057;50.858;6.572;2024-01-06T17:16:36;100047.97;;;2.26;100.00
4085;BME280;2057;50.858;6.572;2024-01-06T17:19:02;100042.09;;;2.26;100.00
4085;BME280;2057;50.858;6.572;2024-01-06T17:21:29;100049.47;;;2.12;100.00
4085;BME280;2057;50.858;6.572;2024-01-06T17:23:55;100057.03;;;2.02;100.00
4085;BME280;2057;50.858;6.572;2024-01-06T17:26:20;100051.69;;;2.19;100.00
4085;BME280;2057;50.858;6.572;2024-01-06T17:28:47;100051.69;;;2.19;100.00
4085;BME280;2057;50.858;6.572;2024-01-06T17:31:12;100052.63;;;2.22;100.00
4085;BME280;2057;50.858;6.572;2024-01-06T17:33:38;100060.16;;;2.22;100.00
4085;BME280;2057;50.858;6.572;2024-01-06T17:36:03;100051.88;;;2.23;100.00
4085;BME280;2057;50.858;6.572;2024-01-06T17:38:29;100057.25;;;2.05;100.00
4085;BME280;2057;50.858;6.572;2024-01-06T17:40:54;100060.34;;;2.13;100.00
4085;BME280;2057;50.858;6.572;2024-01-06T17:43:22;100066.06;;;2.22;100.00
4085;BME280;2057;50.858;6.572;2024-01-06T17:45:47;100063.19;;;2.17;100.00
4085;BME280;2057;50.858;6.572;2024-01-06T17:48:13;100070.16;;;2.22;100.00
4085;BME280;2057;50.858;6.572;2024-01-06T17:50:38;100066.91;;;2.23;100.00
4085;BME280;2057;50.858;6.572;2024-01-06T17:53:03;100071.06;;;2.22;100.00
4085;BME280;2057;50.858;6.572;2024-01-06T17:55:30;100071.00;;;1.88;100.00
4085;BME280;2057;50.858;6.572;2024-01-06T17:57:58;100077.81;;;2.01;100.00
4085;BME280;2057;50.858;6.572;2024-01-06T18:00:23;100079.38;;;1.88;100.00
4085;BME280;2057;50.858;6.572;2024-01-06T18:02:48;100079.22;;;1.97;100.00
4085;BME280;2057;50.858;6.572;2024-01-06T18:05:14;100086.91;;;1.78;100.00
4085;BME280;2057;50.858;6.572;2024-01-06T18:07:40;100086.53;;;1.84;100.00
4085;BME280;2057;50.858;6.572;2024-01-06T18:10:05;100093.16;;;1.83;100.00
4085;BME280;2057;50.858;6.572;2024-01-06T18:12:31;100090.84;;;1.97;100.00
4085;BME280;2057;50.858;6.572;2024-01-06T18:14:58;100090.34;;;2.01;100.00
4085;BME280;2057;50.858;6.572;2024-01-06T18:17:23;100097.72;;;1.77;100.00
4085;BME280;2057;50.858;6.572;2024-01-06T18:19:49;100098.34;;;1.97;100.00
4085;BME280;2057;50.858;6.572;2024-01-06T18:22:14;100101.59;;;1.96;100.00
4085;BME280;2057;50.858;6.572;2024-01-06T18:24:40;100103.59;;;2.00;100.00
4085;BME280;2057;50.858;6.572;2024-01-06T18:27:07;100106.97;;;2.00;100.00
4085;BME280;2057;50.858;6.572;2024-01-06T18:29:33;100115.19;;;2.10;100.00
4085;BME280;2057;50.858;6.572;2024-01-06T18:31:59;100112.56;;;2.08;100.00
4085;BME280;2057;50.858;6.572;2024-01-06T18:34:27;100112.31;;;2.05;100.00
4085;BME280;2057;50.858;6.572;2024-01-06T18:36:55;100119.03;;;2.16;100.00
4085;BME280;2057;50.858;6.572;2024-01-06T18:39:21;100122.31;;;2.15;100.00
4085;BME280;2057;50.858;6.572;2024-01-06T18:41:46;100121.19;;;2.12;100.00
4085;BME280;2057;50.858;6.572;2024-01-06T18:44:14;100121.25;;;2.01;100.00
4085;BME280;2057;50.858;6.572;2024-01-06T18:46:39;100119.72;;;2.03;100.00
4085;BME280;2057;50.858;6.572;2024-01-06T18:49:07;100119.81;;;1.83;100.00
4085;BME280;2057;50.858;6.572;2024-01-06T18:51:36;100126.44;;;1.93;100.00
4085;BME280;2057;50.858;6.572;2024-01-06T18:54:07;100130.78;;;1.95;100.00
4085;BME280;2057;50.858;6.572;2024-01-06T18:56:33;100126.56;;;1.84;100.00
4085;BME280;2057;50.858;6.572;2024-01-06T18:58:59;100127.69;;;1.87;100.00
4085;BME280;2057;50.858;6.572;2024-01-06T19:01:24;100128.72;;;1.79;100.00
4085;BME280;2057;50.858;6.572;2024-01-06T19:03:52;100129.69;;;1.92;100.00
4085;BME280;2057;50.858;6.572;2024-01-06T19:06:18;100133.22;;;1.83;100.00
4085;BME280;2057;50.858;6.572;2024-01-06T19:08:43;100131.44;;;1.93;100.00
4085;BME280;2057;50.858;6.572;2024-01-06T19:11:08;100133.34;;;1.75;100.00
4085;BME280;2057;50.858;6.572;2024-01-06T19:13:34;100135.91;;;1.64;100.00
4085;BME280;2057;50.858;6.572;2024-01-06T19:16:01;100131.78;;;1.65;100.00
4085;BME280;2057;50.858;6.572;2024-01-06T19:18:26;100142.50;;;1.74;100.00
4085;BME280;2057;50.858;6.572;2024-01-06T19:20:54;100142.81;;;1.56;100.00
4085;BME280;2057;50.858;6.572;2024-01-06T19:23:19;100140.19;;;1.55;100.00
4085;BME280;2057;50.858;6.572;2024-01-06T19:25:45;100143.56;;;1.55;100.00
4085;BME280;2057;50.858;6.572;2024-01-06T19:28:12;100151.94;;;1.56;100.00
4085;BME280;2057;50.858;6.572;2024-01-06T19:30:37;100152.16;;;1.59;100.00
4085;BME280;2057;50.858;6.572;2024-01-06T19:33:06;100156.59;;;1.51;100.00
4085;BME280;2057;50.858;6.572;2024-01-06T19:35:34;100155.06;;;1.53;100.00
4085;BME280;2057;50.858;6.572;2024-01-06T19:37:59;100151.44;;;1.50;100.00
4085;BME280;2057;50.858;6.572;2024-01-06T19:40:25;100153.81;;;1.59;100.00
4085;BME280;2057;50.858;6.572;2024-01-06T19:42:51;100153.06;;;1.60;100.00
4085;BME280;2057;50.858;6.572;2024-01-06T19:45:17;100164.47;;;1.56;100.00
4085;BME280;2057;50.858;6.572;2024-01-06T19:47:43;100163.66;;;1.67;100.00
4085;BME280;2057;50.858;6.572;2024-01-06T19:50:09;100160.41;;;1.68;100.00
4085;BME280;2057;50.858;6.572;2024-01-06T19:52:34;100163.03;;;1.70;100.00
4085;BME280;2057;50.858;6.572;2024-01-06T19:55:01;100166.91;;;1.66;100.00
4085;BME280;2057;50.858;6.572;2024-01-06T19:57:27;100170.78;;;1.73;100.00
4085;BME280;2057;50.858;6.572;2024-01-06T19:59:54;100166.91;;;1.66;100.00
4085;BME280;2057;50.858;6.572;2024-01-06T20:02:22;100166.78;;;1.75;100.00
4085;BME280;2057;50.858;6.572;2024-01-06T20:04:47;100172.00;;;1.78;100.00
4085;BME280;2057;50.858;6.572;2024-01-06T20:07:13;100173.53;;;1.76;100.00
4085;BME280;2057;50.858;6.572;2024-01-06T20:09:43;100168.25;;;1.83;100.00
4085;BME280;2057;50.858;6.572;2024-01-06T20:12:08;100171.16;;;1.67;100.00
4085;BME280;2057;50.858;6.572;2024-01-06T20:14:34;100173.34;;;1.42;100.00
4085;BME280;2057;50.858;6.572;2024-01-06T20:16:59;100171.44;;;1.50;100.00
4085;BME280;2057;50.858;6.572;2024-01-06T20:19:27;100178.09;;;1.49;100.00
4085;BME280;2057;50.858;6.572;2024-01-06T20:21:55;100180.22;;;1.55;100.00
4085;BME280;2057;50.858;6.572;2024-01-06T20:24:20;100172.56;;;1.64;100.00
4085;BME280;2057;50.858;6.572;2024-01-06T20:26:46;100173.31;;;1.63;100.00
4085;BME280;2057;50.858;6.572;2024-01-06T20:29:11;100173.03;;;1.70;100.00
4085;BME280;2057;50.858;6.572;2024-01-06T20:31:37;100167.28;;;1.71;100.00
4085;BME280;2057;50.858;6.572;2024-01-06T20:34:03;100172.06;;;1.68;100.00
4085;BME280;2057;50.858;6.572;2024-01-06T20:36:28;100178.03;;;1.70;100.00
4085;BME280;2057;50.858;6.572;2024-01-06T20:38:53;100171.78;;;1.75;100.00
4085;BME280;2057;50.858;6.572;2024-01-06T20:41:22;100173.19;;;1.61;100.00
4085;BME280;2057;50.858;6.572;2024-01-06T20:43:47;100172.81;;;1.67;100.00
4085;BME280;2057;50.858;6.572;2024-01-06T20:46:17;100165.31;;;1.67;100.00
4085;BME280;2057;50.858;6.572;2024-01-06T20:48:45;100176.69;;;1.63;100.00
4085;BME280;2057;50.858;6.572;2024-01-06T20:51:11;100173.03;;;1.70;100.00
4085;BME280;2057;50.858;6.572;2024-01-06T20:53:40;100167.81;;;1.67;100.00
4085;BME280;2057;50.858;6.572;2024-01-06T20:56:05;100175.41;;;1.68;100.00
4085;BME280;2057;50.858;6.572;2024-01-06T20:58:31;100181.06;;;1.66;100.00
4085;BME280;2057;50.858;6.572;2024-01-06T21:00:57;100188.56;;;1.76;100.00
4085;BME280;2057;50.858;6.572;2024-01-06T21:03:22;100182.00;;;1.78;100.00
4085;BME280;2057;50.858;6.572;2024-01-06T21:05:47;100185.53;;;1.70;100.00
4085;BME280;2057;50.858;6.572;2024-01-06T21:08:16;100183.94;;;1.70;100.00
4085;BME280;2057;50.858;6.572;2024-01-06T21:10:43;100190.34;;;1.56;100.00
4085;BME280;2057;50.858;6.572;2024-01-06T21:13:09;100188.28;;;1.73;100.00
4085;BME280;2057;50.858;6.572;2024-01-06T21:15:34;100193.56;;;1.76;100.00
4085;BME280;2057;50.858;6.572;2024-01-06T21:17:59;100188.91;;;1.81;100.00